createdAt,value
2017-12-20T00:01:13.340Z,46.83
2017-12-20T00:03:42.756Z,46.17
2017-12-20T00:06:10.896Z,59.85
2017-12-20T00:08:39.101Z,45.17
2017-12-20T00:11:07.184Z,47.40
2017-12-20T00:13:35.407Z,48.08
2017-12-20T00:16:03.517Z,55.38
2017-12-20T00:18:31.639Z,52.17
2017-12-20T00:20:59.805Z,47.00
2017-12-20T00:23:28.675Z,50.60
2017-12-20T00:25:56.815Z,53.70
2017-12-20T00:28:24.944Z,45.58
2017-12-20T00:30:53.835Z,37.25
2017-12-20T00:33:22.728Z,38.67
2017-12-20T00:35:51.617Z,38.95
2017-12-20T00:38:20.548Z,33.30
2017-12-20T00:40:48.664Z,41.78
2017-12-20T00:43:16.783Z,35.35
2017-12-20T00:45:44.918Z,37.20
2017-12-20T00:48:13.818Z,36.67
2017-12-20T00:50:42.736Z,35.08
2017-12-20T00:53:10.857Z,35.80
2017-12-20T00:55:38.997Z,29.25
2017-12-20T00:58:07.128Z,34.88
2017-12-20T01:00:36.026Z,49.63
2017-12-20T01:03:04.943Z,35.70
2017-12-20T01:05:33.084Z,43.87
2017-12-20T01:08:02.035Z,35.85
2017-12-20T01:10:30.878Z,32.17
2017-12-20T01:12:58.992Z,41.53
2017-12-20T01:15:27.139Z,43.70
2017-12-20T01:17:55.300Z,43.15
2017-12-20T01:20:23.420Z,40.10
2017-12-20T01:22:51.559Z,44.80
2017-12-20T01:25:19.676Z,42.85
2017-12-20T01:27:47.857Z,39.67
2017-12-20T01:30:15.997Z,39.05
2017-12-20T01:32:44.128Z,48.25
2017-12-20T01:35:12.612Z,37.53
2017-12-20T01:37:41.511Z,32.95
2017-12-20T01:40:09.676Z,39.75
2017-12-20T01:42:54.564Z,40.92
2017-12-20T01:45:22.722Z,42.00
2017-12-20T01:47:51.613Z,39.28
2017-12-20T01:50:20.499Z,38.60
2017-12-20T01:52:49.396Z,38.75
2017-12-20T01:55:17.517Z,40.50
2017-12-20T01:57:45.679Z,33.65
2017-12-20T02:00:13.796Z,40.42
2017-12-20T02:02:42.684Z,38.67
2017-12-20T02:05:10.816Z,40.17
2017-12-20T02:07:38.931Z,37.15
2017-12-20T02:10:07.825Z,44.05
2017-12-20T02:12:36.868Z,42.97
2017-12-20T02:15:04.983Z,48.92
2017-12-20T02:17:33.128Z,47.83
2017-12-20T02:20:01.268Z,42.08
2017-12-20T02:22:29.392Z,48.10
2017-12-20T02:24:57.523Z,46.50
2017-12-20T02:27:25.644Z,50.45
2017-12-20T02:29:53.784Z,58.05
2017-12-20T02:32:21.938Z,46.37
2017-12-20T02:34:50.054Z,59.97
2017-12-20T02:37:18.168Z,49.92
2017-12-20T02:39:46.308Z,42.67
2017-12-20T02:42:15.220Z,50.28
2017-12-20T02:44:44.125Z,49.35
2017-12-20T02:47:13.004Z,44.22
2017-12-20T02:49:41.885Z,42.80
2017-12-20T02:52:10.016Z,42.25
2017-12-20T02:54:38.211Z,42.60
2017-12-20T02:57:06.365Z,43.45
2017-12-20T02:59:34.478Z,38.78
2017-12-20T03:02:02.593Z,44.83
2017-12-20T03:04:30.737Z,44.03
2017-12-20T03:06:59.631Z,46.83
2017-12-20T03:09:28.605Z,50.40
2017-12-20T03:11:56.680Z,40.60
2017-12-20T03:14:24.798Z,45.15
2017-12-20T03:16:52.919Z,44.00
2017-12-20T03:19:21.043Z,43.42
2017-12-20T03:21:49.194Z,44.53
2017-12-20T03:24:18.076Z,56.05
2017-12-20T03:26:46.964Z,48.25
2017-12-20T03:29:15.864Z,43.95
2017-12-20T03:31:44.756Z,57.10
2017-12-20T03:34:13.652Z,45.47
2017-12-20T03:36:42.547Z,50.33
2017-12-20T03:39:10.660Z,54.90
2017-12-20T03:41:38.791Z,49.85
2017-12-20T03:44:06.919Z,54.88
2017-12-20T03:46:35.051Z,59.90
2017-12-20T03:49:03.172Z,53.97
2017-12-20T03:51:32.084Z,60.95
2017-12-20T03:54:00.264Z,52.45
2017-12-20T03:56:29.180Z,54.67
2017-12-20T03:58:57.300Z,56.40
2017-12-20T04:01:25.440Z,61.58
2017-12-20T04:03:53.604Z,61.95
2017-12-20T04:06:21.743Z,60.35
2017-12-20T04:08:49.853Z,56.50
2017-12-20T04:11:17.972Z,77.18
2017-12-20T04:13:46.108Z,62.88
2017-12-20T04:16:14.245Z,65.60
2017-12-20T04:18:43.136Z,75.85
2017-12-20T04:21:12.020Z,68.65
2017-12-20T04:23:40.937Z,63.58
2017-12-20T04:26:09.066Z,80.18
2017-12-20T04:28:37.204Z,71.07
2017-12-20T04:31:05.347Z,71.43
2017-12-20T04:33:34.230Z,68.07
2017-12-20T04:36:03.108Z,82.47
2017-12-20T04:38:32.033Z,77.12
2017-12-20T04:41:00.151Z,88.18
2017-12-20T04:43:28.282Z,66.03
2017-12-20T04:45:56.423Z,71.15
2017-12-20T04:48:25.321Z,64.72
2017-12-20T04:50:54.204Z,77.45
2017-12-20T04:53:23.115Z,83.18
2017-12-20T04:55:51.245Z,84.03
2017-12-20T04:58:19.369Z,70.18
2017-12-20T05:00:47.512Z,70.70
2017-12-20T05:03:16.412Z,55.90
2017-12-20T05:05:45.329Z,69.37
2017-12-20T05:08:13.459Z,68.43
2017-12-20T05:10:41.585Z,75.07
2017-12-20T05:13:09.720Z,71.68
2017-12-20T05:15:38.636Z,72.40
2017-12-20T05:18:06.757Z,72.62
2017-12-20T05:20:34.901Z,84.22
2017-12-20T05:23:03.047Z,66.90
2017-12-20T05:25:32.054Z,72.30
2017-12-20T05:28:00.168Z,76.57
2017-12-20T05:30:28.300Z,67.95
2017-12-20T05:32:56.423Z,81.78
2017-12-20T05:35:24.546Z,71.43
2017-12-20T05:37:52.691Z,67.12
2017-12-20T05:40:21.585Z,78.15
2017-12-20T05:42:50.484Z,73.43
2017-12-20T05:45:19.390Z,66.03
2017-12-20T05:47:47.500Z,62.53
2017-12-20T05:50:15.616Z,64.03
2017-12-20T05:52:44.515Z,70.70
2017-12-20T05:55:12.707Z,57.50
2017-12-20T05:57:40.849Z,85.25
2017-12-20T06:00:08.996Z,59.85
2017-12-20T06:02:37.140Z,63.70
2017-12-20T06:05:05.267Z,73.65
2017-12-20T06:07:34.186Z,74.40
2017-12-20T06:10:02.304Z,69.47
2017-12-20T06:12:30.426Z,68.85
2017-12-20T06:14:59.323Z,60.60
2017-12-20T06:17:27.441Z,72.28
2017-12-20T06:19:55.636Z,80.10
2017-12-20T06:22:23.772Z,85.78
2017-12-20T06:24:51.897Z,66.72
2017-12-20T06:27:20.784Z,96.57
2017-12-20T06:29:48.957Z,98.90
2017-12-20T06:32:17.065Z,81.07
2017-12-20T06:34:45.175Z,72.72
2017-12-20T06:37:13.323Z,72.60
2017-12-20T06:39:41.435Z,120.15
2017-12-20T06:42:09.560Z,63.63
2017-12-20T06:44:37.725Z,82.57
2017-12-20T06:47:05.836Z,78.32
2017-12-20T06:49:33.976Z,69.90
2017-12-20T06:52:02.147Z,88.93
2017-12-20T06:54:30.264Z,74.15
2017-12-20T06:56:58.420Z,74.07
2017-12-20T06:59:26.557Z,80.32
2017-12-20T07:01:54.701Z,69.68
2017-12-20T07:04:22.813Z,63.85
2017-12-20T07:06:50.960Z,68.50
2017-12-20T07:09:19.841Z,78.62
2017-12-20T07:11:48.728Z,64.57
2017-12-20T07:14:16.885Z,68.32
2017-12-20T07:16:45.016Z,68.37
2017-12-20T07:19:13.136Z,67.97
2017-12-20T07:21:41.275Z,80.43
2017-12-20T07:24:09.408Z,75.55
2017-12-20T07:26:38.297Z,80.97
2017-12-20T07:29:06.445Z,79.53
2017-12-20T07:31:34.561Z,82.53
2017-12-20T07:34:03.473Z,77.03
2017-12-20T07:36:31.610Z,73.25
2017-12-20T07:39:00.502Z,82.05
2017-12-20T07:41:29.389Z,68.65
2017-12-20T07:43:58.295Z,71.05
2017-12-20T07:46:27.198Z,94.87
2017-12-20T07:48:55.308Z,77.10
2017-12-20T07:51:23.448Z,86.90
2017-12-20T07:53:51.563Z,83.40
2017-12-20T07:56:19.688Z,82.53
2017-12-20T07:58:47.836Z,77.75
2017-12-20T08:01:16.713Z,82.28
2017-12-20T08:03:44.825Z,87.37
2017-12-20T08:06:12.972Z,70.18
2017-12-20T08:08:41.857Z,93.95
2017-12-20T08:11:09.973Z,78.35
2017-12-20T08:13:38.133Z,69.50
2017-12-20T08:16:06.336Z,72.32
2017-12-20T08:18:34.456Z,92.15
2017-12-20T08:21:03.369Z,86.40
2017-12-20T08:23:31.502Z,100.95
2017-12-20T08:25:59.649Z,83.68
2017-12-20T08:28:27.806Z,78.87
2017-12-20T08:30:55.944Z,83.10
2017-12-20T08:33:24.076Z,69.00
2017-12-20T08:35:52.221Z,75.00
2017-12-20T08:38:20.335Z,78.60
2017-12-20T08:40:48.454Z,111.45
2017-12-20T08:43:16.624Z,99.05
2017-12-20T08:45:45.529Z,101.85
2017-12-20T08:48:13.669Z,92.20
2017-12-20T08:50:41.800Z,102.72
2017-12-20T08:53:09.934Z,97.75
2017-12-20T08:55:38.808Z,82.57
2017-12-20T08:58:07.772Z,86.82
2017-12-20T09:00:35.882Z,101.00
2017-12-20T09:03:04.764Z,92.43
2017-12-20T09:05:33.676Z,74.03
2017-12-20T09:08:02.557Z,76.20
2017-12-20T09:10:31.440Z,84.50
2017-12-20T09:13:00.374Z,93.53
2017-12-20T09:15:28.496Z,81.47
2017-12-20T09:17:56.610Z,82.40
2017-12-20T09:20:24.789Z,76.82
2017-12-20T09:22:52.906Z,97.78
2017-12-20T09:25:21.033Z,95.85
2017-12-20T09:27:49.193Z,88.75
2017-12-20T09:30:17.367Z,156.43
2017-12-20T09:32:47.108Z,116.93
2017-12-20T09:35:15.248Z,121.22
2017-12-20T09:37:43.376Z,91.03
2017-12-20T09:40:11.497Z,103.35
2017-12-20T09:42:39.991Z,98.05
2017-12-20T09:45:08.104Z,105.55
2017-12-20T09:47:36.228Z,105.45
2017-12-20T09:50:04.395Z,98.10
2017-12-20T09:52:33.285Z,91.00
2017-12-20T09:55:02.193Z,92.70
2017-12-20T09:57:30.324Z,98.37
2017-12-20T09:59:58.444Z,97.78
2017-12-20T10:02:26.576Z,108.15
2017-12-20T10:04:54.788Z,105.40
2017-12-20T10:07:22.895Z,82.70
2017-12-20T10:09:51.069Z,107.63
2017-12-20T10:12:19.225Z,100.45
2017-12-20T10:14:47.377Z,85.95
2017-12-20T10:17:15.492Z,101.53
2017-12-20T10:19:43.636Z,115.62
2017-12-20T10:22:11.767Z,113.10
2017-12-20T10:24:40.670Z,110.55
2017-12-20T10:27:09.573Z,97.28
2017-12-20T10:29:38.475Z,124.80
2017-12-20T10:32:06.605Z,99.78
2017-12-20T10:34:34.749Z,90.32
2017-12-20T10:37:02.860Z,90.87
2017-12-20T10:39:31.756Z,87.53
2017-12-20T10:42:00.672Z,88.12
2017-12-20T10:44:29.550Z,85.05
2017-12-20T10:46:58.440Z,93.00
2017-12-20T10:49:27.345Z,108.50
2017-12-20T10:51:55.471Z,95.28
2017-12-20T10:54:23.580Z,87.72
2017-12-20T10:56:52.511Z,83.37
2017-12-20T10:59:20.638Z,90.12
2017-12-20T11:01:49.520Z,78.90
2017-12-20T11:04:18.435Z,94.90
2017-12-20T11:06:47.335Z,87.15
2017-12-20T11:09:15.452Z,76.30
2017-12-20T11:11:43.597Z,84.65
2017-12-20T11:14:11.711Z,77.20
2017-12-20T11:16:39.822Z,77.68
2017-12-20T11:19:07.967Z,87.90
2017-12-20T11:21:36.881Z,87.62
2017-12-20T11:24:04.993Z,79.87
2017-12-20T11:26:33.241Z,83.57
2017-12-20T11:29:01.340Z,83.40
2017-12-20T11:31:29.471Z,74.55
2017-12-20T11:33:58.388Z,93.20
2017-12-20T11:36:26.552Z,77.57
2017-12-20T11:38:54.664Z,76.05
2017-12-20T11:41:22.829Z,83.50
2017-12-20T11:43:50.949Z,86.18
2017-12-20T11:46:19.820Z,94.57
2017-12-20T11:48:48.021Z,89.72
2017-12-20T11:51:16.911Z,97.25
2017-12-20T11:53:45.814Z,77.43
2017-12-20T11:56:13.956Z,85.97
2017-12-20T11:58:42.070Z,96.30
2017-12-20T12:01:10.197Z,74.95
2017-12-20T12:03:38.381Z,90.43
2017-12-20T12:06:07.267Z,78.32
2017-12-20T12:08:35.400Z,78.45
2017-12-20T12:11:03.535Z,76.50
2017-12-20T12:13:31.651Z,85.50
2017-12-20T12:15:59.768Z,89.82
2017-12-20T12:18:28.676Z,82.72
2017-12-20T12:20:56.801Z,76.93
2017-12-20T12:23:24.909Z,62.30
2017-12-20T12:25:53.821Z,66.43
2017-12-20T12:28:21.952Z,63.40
2017-12-20T12:30:50.174Z,64.62
2017-12-20T12:33:19.052Z,62.83
2017-12-20T12:35:47.176Z,74.43
2017-12-20T12:38:15.285Z,71.03
2017-12-20T12:40:44.192Z,62.20
2017-12-20T12:43:12.312Z,65.47
2017-12-20T12:45:40.435Z,65.90
2017-12-20T12:48:09.356Z,69.95
2017-12-20T12:50:37.466Z,68.00
2017-12-20T12:53:05.608Z,67.37
2017-12-20T12:55:33.759Z,58.97
2017-12-20T12:58:01.876Z,64.53
2017-12-20T13:00:30.108Z,65.60
2017-12-20T13:02:58.995Z,60.30
2017-12-20T13:05:27.114Z,62.62
2017-12-20T13:07:55.244Z,57.78
2017-12-20T13:10:23.420Z,50.85
2017-12-20T13:12:51.537Z,54.28
2017-12-20T13:15:19.664Z,61.20
2017-12-20T13:17:48.583Z,58.50
2017-12-20T13:20:16.702Z,54.97
2017-12-20T13:22:45.576Z,52.75
2017-12-20T13:25:13.711Z,55.53
2017-12-20T13:27:41.839Z,62.10
2017-12-20T13:30:10.734Z,51.83
2017-12-20T13:32:39.755Z,55.00
2017-12-20T13:35:07.860Z,47.35
2017-12-20T13:37:36.005Z,56.10
2017-12-20T13:40:04.177Z,62.72
2017-12-20T13:42:32.288Z,51.72
2017-12-20T13:45:00.410Z,55.10
2017-12-20T13:47:29.325Z,49.33
2017-12-20T13:49:57.440Z,51.90
2017-12-20T13:52:25.560Z,50.97
2017-12-20T13:54:53.704Z,51.75
2017-12-20T13:57:22.577Z,40.15
2017-12-20T13:59:50.704Z,45.90
2017-12-20T14:02:18.842Z,44.42
2017-12-20T14:04:47.727Z,59.10
2017-12-20T14:07:16.628Z,48.35
2017-12-20T14:09:45.536Z,43.55
2017-12-20T14:12:13.692Z,49.78
2017-12-20T14:14:42.581Z,50.90
2017-12-20T14:17:11.532Z,46.72
2017-12-20T14:19:39.672Z,57.28
2017-12-20T14:22:07.768Z,41.33
2017-12-20T14:24:35.936Z,46.83
2017-12-20T14:27:04.059Z,43.85
2017-12-20T14:29:32.176Z,48.50
2017-12-20T14:32:00.326Z,42.25
2017-12-20T14:34:29.204Z,44.28
2017-12-20T14:36:58.088Z,46.63
2017-12-20T14:39:26.241Z,39.85
2017-12-20T14:41:54.352Z,43.33
2017-12-20T14:44:23.230Z,41.08
2017-12-20T14:46:52.144Z,34.13
2017-12-20T14:49:20.270Z,36.83
2017-12-20T14:51:48.380Z,40.38
2017-12-20T14:54:17.281Z,46.03
2017-12-20T14:56:45.397Z,44.72
2017-12-20T14:59:13.500Z,41.70
2017-12-20T15:01:42.433Z,44.97
2017-12-20T15:04:10.588Z,40.35
2017-12-20T15:06:38.708Z,45.83
2017-12-20T15:09:06.848Z,35.80
2017-12-20T15:11:34.961Z,43.45
2017-12-20T15:14:03.084Z,44.90
2017-12-20T15:16:31.224Z,47.40
2017-12-20T15:18:59.341Z,41.13
2017-12-20T15:21:27.454Z,35.35
2017-12-20T15:23:55.595Z,47.50
2017-12-20T15:26:23.769Z,35.85
2017-12-20T15:28:52.613Z,33.42
2017-12-20T15:31:20.761Z,34.67
2017-12-20T15:33:48.908Z,32.92
2017-12-20T15:36:17.024Z,31.83
2017-12-20T15:38:45.164Z,37.85
2017-12-20T15:41:13.279Z,38.88
2017-12-20T15:43:42.200Z,43.72
2017-12-20T15:46:11.124Z,35.38
2017-12-20T15:48:39.244Z,35.53
2017-12-20T15:51:08.128Z,39.10
2017-12-20T15:53:37.032Z,41.05
2017-12-20T15:56:05.920Z,37.83
2017-12-20T15:58:34.801Z,43.75
2017-12-20T16:01:03.748Z,41.45
2017-12-20T16:03:31.881Z,48.47
2017-12-20T16:06:00.790Z,38.28
2017-12-20T16:08:28.936Z,34.55
2017-12-20T16:10:57.816Z,38.28
2017-12-20T16:13:25.945Z,40.88
2017-12-20T16:15:54.092Z,34.00
2017-12-20T16:18:22.213Z,43.33
2017-12-20T16:20:50.328Z,44.58
2017-12-20T16:23:19.237Z,42.47
2017-12-20T16:25:47.351Z,40.55
2017-12-20T16:28:15.472Z,39.88
2017-12-20T16:30:43.638Z,32.97
2017-12-20T16:33:12.527Z,38.05
2017-12-20T16:35:41.447Z,35.97
2017-12-20T16:38:09.616Z,33.85
2017-12-20T16:40:37.786Z,37.20
2017-12-20T16:43:05.965Z,33.30
2017-12-20T16:45:34.092Z,35.35
2017-12-20T16:48:02.220Z,41.05
2017-12-20T16:50:30.336Z,35.28
2017-12-20T16:52:58.501Z,43.33
2017-12-20T16:55:26.636Z,39.83
2017-12-20T16:57:54.799Z,41.80
2017-12-20T17:00:22.994Z,43.45
2017-12-20T17:02:51.113Z,42.50
2017-12-20T17:05:19.244Z,41.88
2017-12-20T17:07:47.393Z,40.80
2017-12-20T17:10:15.516Z,43.15
2017-12-20T17:12:43.646Z,37.25
2017-12-20T17:15:11.840Z,43.15
2017-12-20T17:17:40.013Z,42.05
2017-12-20T17:20:08.181Z,43.78
2017-12-20T17:22:36.348Z,54.25
2017-12-20T17:25:04.537Z,47.50
2017-12-20T17:27:32.676Z,44.28
2017-12-20T17:30:01.613Z,47.45
2017-12-20T17:32:29.793Z,42.05
2017-12-20T17:34:57.952Z,39.20
2017-12-20T17:37:26.181Z,45.88
2017-12-20T17:39:54.325Z,44.80
2017-12-20T17:42:22.559Z,45.45
2017-12-20T17:44:50.764Z,40.22
2017-12-20T17:47:18.870Z,39.78
2017-12-20T17:49:47.769Z,49.55
2017-12-20T17:52:15.984Z,46.13
2017-12-20T17:54:44.160Z,50.12
2017-12-20T17:57:12.287Z,57.80
2017-12-20T17:59:41.269Z,59.72
2017-12-20T18:02:09.412Z,51.63
2017-12-20T18:04:38.148Z,50.97
2017-12-20T18:07:06.305Z,44.45
2017-12-20T18:09:34.451Z,44.13
2017-12-20T18:12:02.608Z,45.88
2017-12-20T18:14:30.789Z,40.45
2017-12-20T18:17:00.294Z,36.40
2017-12-20T18:19:28.437Z,32.88
2017-12-20T18:21:56.606Z,31.42
2017-12-20T18:24:25.172Z,35.88
2017-12-20T18:26:54.097Z,36.63
2017-12-20T18:29:22.269Z,40.10
2017-12-20T18:31:50.397Z,42.65
2017-12-20T18:34:18.602Z,32.63
2017-12-20T18:36:47.531Z,36.13
2017-12-20T18:39:15.652Z,27.02
2017-12-20T18:41:43.860Z,31.30
2017-12-20T18:44:12.020Z,31.10
2017-12-20T18:46:40.136Z,30.12
2017-12-20T18:49:08.264Z,24.27
2017-12-20T18:51:37.184Z,28.73
2017-12-20T18:54:05.296Z,27.58
2017-12-20T18:56:33.448Z,20.45
2017-12-20T18:59:01.601Z,20.55
2017-12-20T19:01:29.713Z,21.55
2017-12-20T19:03:57.838Z,20.95
2017-12-20T19:06:26.804Z,19.60
2017-12-20T19:08:55.734Z,24.45
2017-12-20T19:11:23.863Z,19.30
2017-12-20T19:13:52.006Z,25.52
2017-12-20T19:16:20.173Z,19.15
2017-12-20T19:18:48.342Z,24.98
2017-12-20T19:21:16.545Z,24.52
2017-12-20T19:23:44.671Z,25.20
2017-12-20T19:26:12.842Z,23.67
2017-12-20T19:28:41.061Z,23.83
2017-12-20T19:31:09.200Z,20.88
2017-12-20T19:33:37.367Z,18.80
2017-12-20T19:36:05.553Z,20.67
2017-12-20T19:38:34.456Z,17.37
2017-12-20T19:41:02.583Z,19.83
2017-12-20T19:43:31.518Z,20.83
2017-12-20T19:45:59.628Z,24.80
2017-12-20T19:48:27.760Z,23.52
2017-12-20T19:50:55.944Z,22.55
2017-12-20T19:53:24.070Z,20.90
2017-12-20T19:55:52.975Z,20.10
2017-12-20T19:58:21.168Z,24.80
2017-12-20T20:00:49.277Z,21.70
2017-12-20T20:03:17.436Z,18.85
2017-12-20T20:05:45.592Z,21.98
2017-12-20T20:08:13.753Z,21.60
2017-12-20T20:10:41.941Z,26.30
2017-12-20T20:13:10.116Z,28.50
2017-12-20T20:15:38.287Z,22.83
2017-12-20T20:18:06.426Z,22.55
2017-12-20T20:20:35.337Z,21.42
2017-12-20T20:23:03.462Z,23.67
2017-12-20T20:25:31.586Z,18.40
2017-12-20T20:27:59.733Z,21.02
2017-12-20T20:30:28.629Z,21.08
2017-12-20T20:32:57.545Z,21.02
2017-12-20T20:35:25.684Z,24.45
2017-12-20T20:37:54.570Z,24.98
2017-12-20T20:40:22.677Z,24.73
2017-12-20T20:42:50.828Z,21.90
2017-12-20T20:45:19.736Z,18.85
2017-12-20T20:47:47.856Z,20.45
2017-12-20T20:50:16.006Z,16.27
2017-12-20T20:52:44.120Z,19.80
2017-12-20T20:55:12.245Z,17.98
2017-12-20T20:57:40.384Z,17.37
2017-12-20T21:00:09.284Z,16.80
2017-12-20T21:02:38.172Z,17.87
2017-12-20T21:05:07.077Z,18.62
2017-12-20T21:07:35.205Z,17.55
2017-12-20T21:10:03.316Z,16.00
2017-12-20T21:12:32.257Z,17.67
2017-12-20T21:15:00.399Z,17.83
2017-12-20T21:17:28.506Z,13.85
2017-12-20T21:19:56.644Z,20.12
2017-12-20T21:22:24.792Z,15.45
2017-12-20T21:24:53.672Z,21.67
2017-12-20T21:27:21.836Z,19.02
2017-12-20T21:29:49.953Z,21.08
2017-12-20T21:32:18.068Z,19.75
2017-12-20T21:34:46.208Z,17.73
2017-12-20T21:37:14.329Z,23.30
2017-12-20T21:39:42.446Z,17.87
2017-12-20T21:42:10.629Z,17.62
2017-12-20T21:44:38.746Z,19.37
2017-12-20T21:47:06.868Z,23.73
2017-12-20T21:49:35.016Z,17.67
2017-12-20T21:52:03.896Z,39.03
2017-12-20T21:54:32.028Z,41.92
2017-12-20T21:57:00.182Z,21.35
2017-12-20T21:59:28.312Z,19.55
2017-12-20T22:01:56.441Z,21.65
2017-12-20T22:04:24.602Z,22.80
2017-12-20T22:06:52.724Z,17.98
2017-12-20T22:09:20.856Z,19.17
2017-12-20T22:11:49.032Z,24.87
2017-12-20T22:14:17.147Z,23.73
2017-12-20T22:16:45.306Z,19.25
2017-12-20T22:19:13.448Z,24.65
2017-12-20T22:21:41.572Z,23.38
2017-12-20T22:24:09.685Z,25.83
2017-12-20T22:26:37.846Z,24.37
2017-12-20T22:29:06.724Z,18.75
2017-12-20T22:31:35.642Z,21.80
2017-12-20T22:34:03.792Z,21.33
2017-12-20T22:36:32.680Z,21.70
2017-12-20T22:39:01.573Z,24.60
2017-12-20T22:41:30.485Z,22.85
2017-12-20T22:43:58.607Z,25.45
2017-12-20T22:46:26.719Z,20.85
2017-12-20T22:48:55.000Z,27.67
2017-12-20T22:51:23.125Z,27.17
2017-12-20T22:53:51.244Z,22.92
2017-12-20T22:56:19.390Z,21.80
2017-12-20T22:58:47.504Z,20.70
2017-12-20T23:01:15.630Z,24.50
2017-12-20T23:03:43.765Z,21.33
2017-12-20T23:06:11.876Z,31.95
2017-12-20T23:08:40.002Z,27.80
2017-12-20T23:11:08.152Z,23.15
2017-12-20T23:13:37.027Z,27.25
2017-12-20T23:16:05.929Z,30.88
2017-12-20T23:18:34.872Z,21.65
2017-12-20T23:21:02.983Z,24.92
2017-12-20T23:23:31.860Z,28.35
2017-12-20T23:26:00.024Z,25.58
2017-12-20T23:28:28.139Z,26.80
2017-12-20T23:30:57.026Z,24.50
2017-12-20T23:33:25.933Z,35.33
2017-12-20T23:35:54.062Z,27.55
2017-12-20T23:38:22.183Z,21.95
2017-12-20T23:40:50.346Z,25.67
2017-12-20T23:43:19.222Z,27.98
2017-12-20T23:45:48.100Z,22.87
2017-12-20T23:48:16.232Z,23.65
2017-12-20T23:50:44.356Z,28.30
2017-12-20T23:53:13.244Z,29.00
2017-12-20T23:55:42.155Z,23.70
2017-12-20T23:58:11.068Z,24.92
